sensor_id;sensor_type;location;lat;lon;timestamp;pressure;altitude;pressure_sealevel;temperature;humidity
13732;BME280;6937;56.096;12.664;2023-05-12T00:02:04;101989.88;;;11.09;100.00
13732;BME280;6937;56.096;12.664;2023-05-12T00:04:31;101996.34;;;11.05;100.00
13732;BME280;6937;56.096;12.664;2023-05-12T00:06:56;101994.78;;;11.01;100.00
13732;BME280;6937;56.096;12.664;2023-05-12T00:09:22;101996.84;;;10.96;100.00
13732;BME280;6937;56.096;12.664;2023-05-12T00:11:47;101986.38;;;10.92;100.00
13732;BME280;6937;56.096;12.664;2023-05-12T00:14:14;101991.13;;;10.87;100.00
13732;BME280;6937;56.096;12.664;2023-05-12T00:16:40;101980.97;;;10.76;100.00
13732;BME280;6937;56.096;12.664;2023-05-12T00:19:05;101985.91;;;10.68;100.00
13732;BME280;6937;56.096;12.664;2023-05-12T00:21:31;101988.41;;;10.71;100.00
13732;BME280;6937;56.096;12.664;2023-05-12T00:23:56;101984.88;;;10.71;100.00
13732;BME280;6937;56.096;12.664;2023-05-12T00:26:21;101978.59;;;10.72;100.00
13732;BME280;6937;56.096;12.664;2023-05-12T00:28:47;101984.94;;;10.69;100.00
13732;BME280;6937;56.096;12.664;2023-05-12T00:31:12;101981.50;;;10.67;100.00
13732;BME280;6937;56.096;12.664;2023-05-12T00:33:38;101977.94;;;10.66;100.00
13732;BME280;6937;56.096;12.664;2023-05-12T00:36:03;101971.91;;;10.63;100.00
13732;BME280;6937;56.096;12.664;2023-05-12T00:38:29;101969.00;;;10.50;100.00
13732;BME280;6937;56.096;12.664;2023-05-12T00:40:54;101972.47;;;10.35;100.00
13732;BME280;6937;56.096;12.664;2023-05-12T00:43:20;101964.16;;;10.24;100.00
13732;BME280;6937;56.096;12.664;2023-05-12T00:45:45;101965.63;;;10.12;100.00
13732;BME280;6937;56.096;12.664;2023-05-12T00:48:11;101959.56;;;10.09;100.00
13732;BME280;6937;56.096;12.664;2023-05-12T00:50:37;101958.75;;;10.08;100.00
13732;BME280;6937;56.096;12.664;2023-05-12T00:53:03;101955.44;;;10.03;100.00
13732;BME280;6937;56.096;12.664;2023-05-12T00:55:28;101950.53;;;9.94;100.00
13732;BME280;6937;56.096;12.664;2023-05-12T00:57:55;101941.59;;;9.78;100.00
13732;BME280;6937;56.096;12.664;2023-05-12T01:00:21;101951.69;;;9.71;100.00
13732;BME280;6937;56.096;12.664;2023-05-12T01:02:47;101955.22;;;9.72;100.00
13732;BME280;6937;56.096;12.664;2023-05-12T01:05:12;101947.38;;;9.69;100.00
13732;BME280;6937;56.096;12.664;2023-05-12T01:07:38;101945.97;;;9.62;100.00
13732;BME280;6937;56.096;12.664;2023-05-12T01:10:15;101941.00;;;9.54;100.00
13732;BME280;6937;56.096;12.664;2023-05-12T01:12:41;101950.88;;;9.52;100.00
13732;BME280;6937;56.096;12.664;2023-05-12T01:15:07;101945.47;;;9.54;100.00
13732;BME280;6937;56.096;12.664;2023-05-12T01:17:34;101943.31;;;9.43;100.00
13732;BME280;6937;56.096;12.664;2023-05-12T01:20:01;101938.91;;;9.42;100.00
13732;BME280;6937;56.096;12.664;2023-05-12T01:22:29;101950.06;;;9.33;100.00
13732;BME280;6937;56.096;12.664;2023-05-12T01:25:02;101944.22;;;9.25;100.00
13732;BME280;6937;56.096;12.664;2023-05-12T01:27:30;101947.81;;;9.24;100.00
13732;BME280;6937;56.096;12.664;2023-05-12T01:30:03;101960.84;;;9.30;100.00
13732;BME280;6937;56.096;12.664;2023-05-12T01:32:29;101959.72;;;9.17;100.00
13732;BME280;6937;56.096;12.664;2023-05-12T01:34:55;101955.41;;;8.96;100.00
13732;BME280;6937;56.096;12.664;2023-05-12T01:37:20;101964.94;;;8.81;100.00
13732;BME280;6937;56.096;12.664;2023-05-12T01:39:46;101968.63;;;8.79;100.00
13732;BME280;6937;56.096;12.664;2023-05-12T01:42:11;101969.72;;;8.93;100.00
13732;BME280;6937;56.096;12.664;2023-05-12T01:44:37;101972.69;;;9.06;100.00
13732;BME280;6937;56.096;12.664;2023-05-12T01:47:02;101963.63;;;9.10;100.00
13732;BME280;6937;56.096;12.664;2023-05-12T01:49:28;101968.59;;;9.17;100.00
13732;BME280;6937;56.096;12.664;2023-05-12T01:51:53;101976.28;;;9.23;100.00
13732;BME280;6937;56.096;12.664;2023-05-12T01:54:18;101972.84;;;9.21;100.00
13732;BME280;6937;56.096;12.664;2023-05-12T01:56:44;101981.13;;;9.15;100.00
13732;BME280;6937;56.096;12.664;2023-05-12T01:59:09;101977.38;;;9.19;100.00
13732;BME280;6937;56.096;12.664;2023-05-12T02:01:35;101975.63;;;9.18;100.00
13732;BME280;6937;56.096;12.664;2023-05-12T02:04:01;101971.78;;;9.07;100.00
13732;BME280;6937;56.096;12.664;2023-05-12T02:06:28;101971.31;;;8.97;100.00
13732;BME280;6937;56.096;12.664;2023-05-12T02:08:53;101976.56;;;8.80;100.00
13732;BME280;6937;56.096;12.664;2023-05-12T02:11:18;101974.50;;;8.66;100.00
13732;BME280;6937;56.096;12.664;2023-05-12T02:13:44;101973.78;;;8.63;100.00
13732;BME280;6937;56.096;12.664;2023-05-12T02:16:09;101973.16;;;8.58;100.00
13732;BME280;6937;56.096;12.664;2023-05-12T02:18:35;101980.47;;;8.53;100.00
13732;BME280;6937;56.096;12.664;2023-05-12T02:21:01;101983.81;;;8.38;100.00
13732;BME280;6937;56.096;12.664;2023-05-12T02:23:26;101992.28;;;8.25;100.00
13732;BME280;6937;56.096;12.664;2023-05-12T02:25:51;101987.63;;;8.10;100.00
13732;BME280;6937;56.096;12.664;2023-05-12T02:28:17;101990.28;;;8.10;100.00
13732;BME280;6937;56.096;12.664;2023-05-12T02:30:46;101985.81;;;8.11;100.00
13732;BME280;6937;56.096;12.664;2023-05-12T02:33:13;101974.31;;;8.10;100.00
13732;BME280;6937;56.096;12.664;2023-05-12T02:35:39;101978.72;;;8.11;100.00
13732;BME280;6937;56.096;12.664;2023-05-12T02:38:04;101977.59;;;8.17;100.00
13732;BME280;6937;56.096;12.664;2023-05-12T02:40:30;101982.25;;;8.12;100.00
13732;BME280;6937;56.096;12.664;2023-05-12T02:42:55;101985.78;;;8.12;100.00
13732;BME280;6937;56.096;12.664;2023-05-12T02:45:20;101977.94;;;8.09;100.00
13732;BME280;6937;56.096;12.664;2023-05-12T02:47:46;101981.38;;;8.11;100.00
13732;BME280;6937;56.096;12.664;2023-05-12T02:50:12;101973.56;;;8.07;100.00
13732;BME280;6937;56.096;12.664;2023-05-12T02:52:38;101975.44;;;8.05;100.00
13732;BME280;6937;56.096;12.664;2023-05-12T02:55:03;101980.91;;;8.02;100.00
13732;BME280;6937;56.096;12.664;2023-05-12T02:57:29;101991.47;;;8.03;100.00
13732;BME280;6937;56.096;12.664;2023-05-12T03:00:01;101978.56;;;7.94;100.00
13732;BME280;6937;56.096;12.664;2023-05-12T03:02:28;101991.81;;;7.96;100.00
13732;BME280;6937;56.096;12.664;2023-05-12T03:04:53;101984.78;;;7.95;100.00
13732;BME280;6937;56.096;12.664;2023-05-12T03:07:19;101995.19;;;7.99;100.00
13732;BME280;6937;56.096;12.664;2023-05-12T03:09:44;101989.41;;;7.90;100.00
13732;BME280;6937;56.096;12.664;2023-05-12T03:12:09;101999.44;;;7.83;100.00
13732;BME280;6937;56.096;12.664;2023-05-12T03:14:35;102001.16;;;7.84;100.00
13732;BME280;6937;56.096;12.664;2023-05-12T03:17:00;102000.38;;;7.82;100.00
13732;BME280;6937;56.096;12.664;2023-05-12T03:19:26;101997.75;;;7.81;100.00
13732;BME280;6937;56.096;12.664;2023-05-12T03:21:54;101993.31;;;7.81;100.00
13732;BME280;6937;56.096;12.664;2023-05-12T03:24:19;102004.94;;;7.78;100.00
13732;BME280;6937;56.096;12.664;2023-05-12T03:26:45;102005.00;;;7.77;100.00
13732;BME280;6937;56.096;12.664;2023-05-12T03:29:10;102001.59;;;7.73;100.00
13732;BME280;6937;56.096;12.664;2023-05-12T03:31:35;102011.38;;;7.73;100.00
13732;BME280;6937;56.096;12.664;2023-05-12T03:34:01;102005.19;;;7.72;100.00
13732;BME280;6937;56.096;12.664;2023-05-12T03:36:27;102006.94;;;7.73;100.00
13732;BME280;6937;56.096;12.664;2023-05-12T03:38:52;102003.34;;;7.74;100.00
13732;BME280;6937;56.096;12.664;2023-05-12T03:41:18;102006.75;;;7.78;100.00
13732;BME280;6937;56.096;12.664;2023-05-12T03:43:43;102001.28;;;7.81;100.00
13732;BME280;6937;56.096;12.664;2023-05-12T03:46:08;101998.44;;;7.86;100.00
13732;BME280;6937;56.096;12.664;2023-05-12T03:48:34;102011.50;;;7.92;100.00
13732;BME280;6937;56.096;12.664;2023-05-12T03:51:00;101993.81;;;7.91;100.00
13732;BME280;6937;56.096;12.664;2023-05-12T03:53:25;102015.09;;;7.91;100.00
13732;BME280;6937;56.096;12.664;2023-05-12T03:55:50;102005.44;;;7.88;100.00
13732;BME280;6937;56.096;12.664;2023-05-12T03:58:16;102011.56;;;7.90;100.00
13732;BME280;6937;56.096;12.664;2023-05-12T04:00:41;102018.50;;;7.94;100.00
13732;BME280;6937;56.096;12.664;2023-05-12T04:03:07;102017.44;;;7.98;100.00
13732;BME280;6937;56.096;12.664;2023-05-12T04:05:33;102021.69;;;8.02;100.00
13732;BME280;6937;56.096;12.664;2023-05-12T04:07:58;102023.38;;;8.05;100.00
13732;BME280;6937;56.096;12.664;2023-05-12T04:10:23;102019.09;;;8.01;100.00
13732;BME280;6937;56.096;12.664;2023-05-12T04:12:49;102024.34;;;8.02;100.00
13732;BME280;6937;56.096;12.664;2023-05-12T04:15:14;102028.69;;;8.05;100.00
13732;BME280;6937;56.096;12.664;2023-05-12T04:17:40;102039.28;;;8.06;100.00
13732;BME280;6937;56.096;12.664;2023-05-12T04:20:06;102030.13;;;8.13;100.00
13732;BME280;6937;56.096;12.664;2023-05-12T04:22:32;102030.13;;;8.13;100.00
13732;BME280;6937;56.096;12.664;2023-05-12T04:24:57;102035.19;;;8.19;100.00
13732;BME280;6937;56.096;12.664;2023-05-12T04:27:22;102036.59;;;8.28;100.00
13732;BME280;6937;56.096;12.664;2023-05-12T04:29:48;102037.66;;;8.24;100.00
13732;BME280;6937;56.096;12.664;2023-05-12T04:32:13;102037.47;;;8.29;100.00
13732;BME280;6937;56.096;12.664;2023-05-12T04:34:38;102046.88;;;8.37;100.00
13732;BME280;6937;56.096;12.664;2023-05-12T04:37:04;102048.34;;;8.44;100.00
13732;BME280;6937;56.096;12.664;2023-05-12T04:39:29;102046.31;;;8.51;100.00
13732;BME280;6937;56.096;12.664;2023-05-12T04:41:55;102042.47;;;8.56;100.00
13732;BME280;6937;56.096;12.664;2023-05-12T04:44:20;102046.88;;;8.57;100.00
13732;BME280;6937;56.096;12.664;2023-05-12T04:46:46;102038.56;;;8.65;100.00
13732;BME280;6937;56.096;12.664;2023-05-12T04:49:12;102048.22;;;8.67;100.00
13732;BME280;6937;56.096;12.664;2023-05-12T04:51:37;102039.94;;;8.73;100.00
13732;BME280;6937;56.096;12.664;2023-05-12T04:54:08;102047.72;;;8.78;100.00
13732;BME280;6937;56.096;12.664;2023-05-12T04:56:33;102046.53;;;8.85;100.00
13732;BME280;6937;56.096;12.664;2023-05-12T04:58:59;102045.34;;;8.92;100.00
13732;BME280;6937;56.096;12.664;2023-05-12T05:01:24;102053.78;;;9.02;100.00
13732;BME280;6937;56.096;12.664;2023-05-12T05:03:50;102051.69;;;9.08;100.00
13732;BME280;6937;56.096;12.664;2023-05-12T05:06:15;102047.88;;;9.14;100.00
13732;BME280;6937;56.096;12.664;2023-05-12T05:08:41;102051.13;;;9.20;100.00
13732;BME280;6937;56.096;12.664;2023-05-12T05:11:06;102058.63;;;9.31;100.00
13732;BME280;6937;56.096;12.664;2023-05-12T05:13:31;102061.03;;;9.37;100.00
13732;BME280;6937;56.096;12.664;2023-05-12T05:15:57;102055.31;;;9.45;100.00
13732;BME280;6937;56.096;12.664;2023-05-12T05:18:22;102059.34;;;9.53;100.00
13732;BME280;6937;56.096;12.664;2023-05-12T05:20:47;102071.25;;;9.65;100.00
13732;BME280;6937;56.096;12.664;2023-05-12T05:23:13;102074.38;;;9.75;100.00
13732;BME280;6937;56.096;12.664;2023-05-12T05:25:38;102074.00;;;9.82;100.00
13732;BME280;6937;56.096;12.664;2023-05-12T05:28:04;102074.41;;;9.92;100.00
13732;BME280;6937;56.096;12.664;2023-05-12T05:30:29;102081.13;;;10.00;100.00
13732;BME280;6937;56.096;12.664;2023-05-12T05:32:55;102086.78;;;10.11;100.00
13732;BME280;6937;56.096;12.664;2023-05-12T05:35:20;102083.63;;;10.22;100.00
13732;BME280;6937;56.096;12.664;2023-05-12T05:37:46;102083.94;;;10.33;100.00
13732;BME280;6937;56.096;12.664;2023-05-12T05:40:11;102094.91;;;10.46;100.00
13732;BME280;6937;56.096;12.664;2023-05-12T05:42:36;102104.78;;;10.61;100.00
13732;BME280;6937;56.096;12.664;2023-05-12T05:45:02;102103.16;;;10.76;100.00
13732;BME280;6937;56.096;12.664;2023-05-12T05:47:28;102106.13;;;10.87;100.00
13732;BME280;6937;56.096;12.664;2023-05-12T05:49:55;102107.38;;;10.97;100.00
13732;BME280;6937;56.096;12.664;2023-05-12T05:52:20;102105.94;;;11.07;100.00
13732;BME280;6937;56.096;12.664;2023-05-12T05:54:46;102115.06;;;11.20;100.00
13732;BME280;6937;56.096;12.664;2023-05-12T05:57:12;102117.16;;;11.31;100.00
13732;BME280;6937;56.096;12.664;2023-05-12T05:59:37;102119.25;;;11.41;100.00
13732;BME280;6937;56.096;12.664;2023-05-12T06:02:03;102121.34;;;11.52;100.00
13732;BME280;6937;56.096;12.664;2023-05-12T06:04:28;102130.34;;;11.67;100.00
13732;BME280;6937;56.096;12.664;2023-05-12T06:06:54;102134.19;;;11.78;100.00
13732;BME280;6937;56.096;12.664;2023-05-12T06:09:19;102138.09;;;11.88;100.00
13732;BME280;6937;56.096;12.664;2023-05-12T06:11:45;102141.03;;;11.99;100.00
13732;BME280;6937;56.096;12.664;2023-05-12T06:14:10;102147.69;;;12.08;100.00
13732;BME280;6937;56.096;12.664;2023-05-12T06:16:36;102150.53;;;12.21;100.00
13732;BME280;6937;56.096;12.664;2023-05-12T06:19:01;102153.47;;;12.32;100.00
13732;BME280;6937;56.096;12.664;2023-05-12T06:21:27;102158.91;;;12.46;100.00
13732;BME280;6937;56.096;12.664;2023-05-12T06:23:52;102157.25;;;12.59;100.00
13732;BME280;6937;56.096;12.664;2023-05-12T06:26:20;102155.66;;;12.71;100.00
13732;BME280;6937;56.096;12.664;2023-05-12T06:28:46;102164.69;;;12.84;100.00
13732;BME280;6937;56.096;12.664;2023-05-12T06:31:11;102166.53;;;12.97;100.00
13732;BME280;6937;56.096;12.664;2023-05-12T06:33:37;102167.59;;;13.11;100.00
13732;BME280;6937;56.096;12.664;2023-05-12T06:36:02;102177.38;;;13.26;100.00
13732;BME280;6937;56.096;12.664;2023-05-12T06:38:28;102180.28;;;13.37;100.00
13732;BME280;6937;56.096;12.664;2023-05-12T06:40:53;102174.91;;;13.51;100.00
13732;BME280;6937;56.096;12.664;2023-05-12T06:43:18;102174.91;;;13.65;100.00
13732;BME280;6937;56.096;12.664;2023-05-12T06:45:44;102177.41;;;13.82;100.00
13732;BME280;6937;56.096;12.664;2023-05-12T06:48:09;102185.53;;;13.95;100.00
13732;BME280;6937;56.096;12.664;2023-05-12T06:50:35;102177.97;;;14.01;100.00
13732;BME280;6937;56.096;12.664;2023-05-12T06:53:00;102188.69;;;14.16;100.00
13732;BME280;6937;56.096;12.664;2023-05-12T06:55:26;102192.69;;;14.37;100.00
13732;BME280;6937;56.096;12.664;2023-05-12T06:57:51;102195.91;;;14.56;100.00
13732;BME280;6937;56.096;12.664;2023-05-12T07:00:24;102197.72;;;14.82;100.00
13732;BME280;6937;56.096;12.664;2023-05-12T07:02:49;102204.69;;;14.99;100.00
13732;BME280;6937;56.096;12.664;2023-05-12T07:05:15;102207.38;;;15.12;100.00
13732;BME280;6937;56.096;12.664;2023-05-12T07:07:40;102211.84;;;15.25;100.00
13732;BME280;6937;56.096;12.664;2023-05-12T07:10:06;102207.22;;;15.40;100.00
13732;BME280;6937;56.096;12.664;2023-05-12T07:12:32;102216.41;;;15.63;100.00
13732;BME280;6937;56.096;12.664;2023-05-12T07:14:57;102216.94;;;15.80;100.00
13732;BME280;6937;56.096;12.664;2023-05-12T07:17:23;102220.38;;;15.95;100.00
13732;BME280;6937;56.096;12.664;2023-05-12T07:19:48;102228.53;;;16.19;100.00
13732;BME280;6937;56.096;12.664;2023-05-12T07:22:13;102229.75;;;16.38;100.00
13732;BME280;6937;56.096;12.664;2023-05-12T07:24:39;102229.72;;;16.51;100.00
13732;BME280;6937;56.096;12.664;2023-05-12T07:27:05;102232.44;;;16.64;100.00
13732;BME280;6937;56.096;12.664;2023-05-12T07:29:32;102235.06;;;16.76;100.00
13732;BME280;6937;56.096;12.664;2023-05-12T07:31:58;102243.97;;;16.89;100.00
13732;BME280;6937;56.096;12.664;2023-05-12T07:34:23;102249.56;;;17.10;100.00
13732;BME280;6937;56.096;12.664;2023-05-12T07:36:48;102247.69;;;17.23;100.00
13732;BME280;6937;56.096;12.664;2023-05-12T07:39:14;102256.44;;;17.38;100.00
13732;BME280;6937;56.096;12.664;2023-05-12T07:41:43;102258.41;;;17.47;100.00
13732;BME280;6937;56.096;12.664;2023-05-12T07:44:08;102267.97;;;17.64;100.00
13732;BME280;6937;56.096;12.664;2023-05-12T07:46:34;102270.44;;;17.78;100.00
13732;BME280;6937;56.096;12.664;2023-05-12T07:49:00;102275.50;;;17.94;100.00
13732;BME280;6937;56.096;12.664;2023-05-12T07:51:26;102280.06;;;18.04;100.00
13732;BME280;6937;56.096;12.664;2023-05-12T07:53:51;102285.47;;;18.15;100.00
13732;BME280;6937;56.096;12.664;2023-05-12T07:56:17;102297.53;;;18.22;100.00
13732;BME280;6937;56.096;12.664;2023-05-12T07:58:42;102302.22;;;18.31;100.00
13732;BME280;6937;56.096;12.664;2023-05-12T08:01:07;102305.03;;;18.41;100.00
13732;BME280;6937;56.096;12.664;2023-05-12T08:03:34;102315.66;;;18.55;100.00
13732;BME280;6937;56.096;12.664;2023-05-12T08:05:59;102324.00;;;18.63;94.51
13732;BME280;6937;56.096;12.664;2023-05-12T08:08:25;102323.00;;;18.75;93.13
13732;BME280;6937;56.096;12.664;2023-05-12T08:10:50;102322.38;;;18.83;90.47
13732;BME280;6937;56.096;12.664;2023-05-12T08:13:15;102340.44;;;18.94;85.36
13732;BME280;6937;56.096;12.664;2023-05-12T08:15:41;102348.69;;;19.03;82.98
13732;BME280;6937;56.096;12.664;2023-05-12T08:18:06;102349.53;;;19.15;83.39
13732;BME280;6937;56.096;12.664;2023-05-12T08:20:31;102351.22;;;19.27;83.71
13732;BME280;6937;56.096;12.664;2023-05-12T08:22:57;102352.16;;;19.37;81.80
13732;BME280;6937;56.096;12.664;2023-05-12T08:25:22;102361.88;;;19.51;81.59
13732;BME280;6937;56.096;12.664;2023-05-12T08:27:48;102357.38;;;19.61;80.83
13732;BME280;6937;56.096;12.664;2023-05-12T08:30:13;102355.22;;;19.75;78.88
13732;BME280;6937;56.096;12.664;2023-05-12T08:32:40;102364.88;;;19.89;75.61
13732;BME280;6937;56.096;12.664;2023-05-12T08:35:05;102361.22;;;20.00;76.65
13732;BME280;6937;56.096;12.664;2023-05-12T08:37:31;102361.03;;;20.12;73.48
13732;BME280;6937;56.096;12.664;2023-05-12T08:39:56;102366.19;;;20.15;69.98
13732;BME280;6937;56.096;12.664;2023-05-12T08:42:52;102383.19;;;20.17;62.45
13732;BME280;6937;56.096;12.664;2023-05-12T08:45:21;102402.09;;;20.19;62.64
13732;BME280;6937;56.096;12.664;2023-05-12T08:47:48;102384.25;;;20.26;61.49
13732;BME280;6937;56.096;12.664;2023-05-12T08:50:16;102377.19;;;20.35;61.65
13732;BME280;6937;56.096;12.664;2023-05-12T08:52:42;102380.97;;;20.43;61.18
13732;BME280;6937;56.096;12.664;2023-05-12T08:55:08;102389.16;;;20.53;60.27
13732;BME280;6937;56.096;12.664;2023-05-12T08:57:35;102387.19;;;20.64;57.91
13732;BME280;6937;56.096;12.664;2023-05-12T09:00:02;102381.19;;;20.61;55.62
13732;BME280;6937;56.096;12.664;2023-05-12T09:02:29;102369.34;;;20.71;56.05
13732;BME280;6937;56.096;12.664;2023-05-12T09:04:55;102378.09;;;20.85;56.06
13732;BME280;6937;56.096;12.664;2023-05-12T09:07:21;102369.59;;;20.99;56.05
13732;BME280;6937;56.096;12.664;2023-05-12T09:09:53;102369.13;;;21.03;53.43
13732;BME280;6937;56.096;12.664;2023-05-12T09:12:19;102374.28;;;20.97;53.36
13732;BME280;6937;56.096;12.664;2023-05-12T09:14:46;102364.41;;;20.96;52.56
13732;BME280;6937;56.096;12.664;2023-05-12T09:17:15;102352.97;;;21.02;53.28
13732;BME280;6937;56.096;12.664;2023-05-12T09:19:41;102355.75;;;21.11;53.13
13732;BME280;6937;56.096;12.664;2023-05-12T09:22:06;102357.47;;;21.22;53.24
13732;BME280;6937;56.096;12.664;2023-05-12T09:24:35;102338.16;;;21.35;53.44
13732;BME280;6937;56.096;12.664;2023-05-12T09:27:00;102353.06;;;21.31;51.64
13732;BME280;6937;56.096;12.664;2023-05-12T09:29:26;102351.63;;;21.36;52.03
13732;BME280;6937;56.096;12.664;2023-05-12T09:31:53;102343.47;;;21.36;52.16
13732;BME280;6937;56.096;12.664;2023-05-12T09:34:35;102336.59;;;21.51;52.68
13732;BME280;6937;56.096;12.664;2023-05-12T09:37:04;102332.44;;;21.57;52.20
13732;BME280;6937;56.096;12.664;2023-05-12T09:39:30;102330.84;;;21.64;52.73
13732;BME280;6937;56.096;12.664;2023-05-12T09:41:56;102327.69;;;21.68;52.87
13732;BME280;6937;56.096;12.664;2023-05-12T09:44:23;102325.81;;;21.79;52.55
13732;BME280;6937;56.096;12.664;2023-05-12T09:46:50;102326.25;;;21.93;51.99
13732;BME280;6937;56.096;12.664;2023-05-12T09:49:23;102338.56;;;21.97;50.76
13732;BME280;6937;56.096;12.664;2023-05-12T09:51:51;102325.50;;;22.10;51.76
13732;BME280;6937;56.096;12.664;2023-05-12T09:54:27;102331.06;;;22.19;50.78
13732;BME280;6937;56.096;12.664;2023-05-12T09:56:59;102325.03;;;22.25;49.53
13732;BME280;6937;56.096;12.664;2023-05-12T09:59:34;102334.28;;;22.41;48.29
13732;BME280;6937;56.096;12.664;2023-05-12T10:02:02;102323.88;;;22.54;48.36
13732;BME280;6937;56.096;12.664;2023-05-12T10:04:36;102326.16;;;22.59;46.13
13732;BME280;6937;56.096;12.664;2023-05-12T10:07:07;102319.50;;;22.44;45.40
13732;BME280;6937;56.096;12.664;2023-05-12T10:09:35;102308.81;;;22.60;45.10
13732;BME280;6937;56.096;12.664;2023-05-12T10:12:03;102326.56;;;22.74;44.11
13732;BME280;6937;56.096;12.664;2023-05-12T10:14:30;102318.56;;;22.90;44.88
13732;BME280;6937;56.096;12.664;2023-05-12T10:16:56;102311.31;;;22.98;44.43
13732;BME280;6937;56.096;12.664;2023-05-12T10:19:24;102308.75;;;23.15;44.81
13732;BME280;6937;56.096;12.664;2023-05-12T10:21:50;102315.47;;;23.20;44.56
13732;BME280;6937;56.096;12.664;2023-05-12T10:24:15;102307.53;;;23.27;44.62
13732;BME280;6937;56.096;12.664;2023-05-12T10:26:42;102298.66;;;23.42;44.79
13732;BME280;6937;56.096;12.664;2023-05-12T10:29:09;102311.75;;;23.56;43.61
13732;BME280;6937;56.096;12.664;2023-05-12T10:31:36;102296.44;;;23.64;43.28
13732;BME280;6937;56.096;12.664;2023-05-12T10:34:02;102286.00;;;23.59;43.09
13732;BME280;6937;56.096;12.664;2023-05-12T10:36:27;102293.88;;;23.62;42.85
13732;BME280;6937;56.096;12.664;2023-05-12T10:38:54;102271.19;;;23.44;41.46
13732;BME280;6937;56.096;12.664;2023-05-12T10:41:30;102252.53;;;22.69;42.34
13732;BME280;6937;56.096;12.664;2023-05-12T10:43:56;102250.84;;;22.68;43.48
13732;BME280;6937;56.096;12.664;2023-05-12T10:46:21;102265.44;;;22.94;42.41
13732;BME280;6937;56.096;12.664;2023-05-12T10:51:32;102297.72;;;23.51;40.90
13732;BME280;6937;56.096;12.664;2023-05-12T10:54:00;102279.38;;;23.62;41.85
13732;BME280;6937;56.096;12.664;2023-05-12T10:56:28;102279.16;;;23.81;40.96
13732;BME280;6937;56.096;12.664;2023-05-12T11:01:40;102270.53;;;23.68;40.94
13732;BME280;6937;56.096;12.664;2023-05-12T11:04:10;102226.19;;;22.59;41.05
13732;BME280;6937;56.096;12.664;2023-05-12T11:06:37;102237.66;;;22.36;43.21
13732;BME280;6937;56.096;12.664;2023-05-12T11:09:03;102240.94;;;22.39;43.09
13732;BME280;6937;56.096;12.664;2023-05-12T11:11:29;102238.47;;;22.19;43.13
13732;BME280;6937;56.096;12.664;2023-05-12T11:13:54;102256.38;;;22.21;44.39
13732;BME280;6937;56.096;12.664;2023-05-12T11:16:20;102258.84;;;22.14;43.66
13732;BME280;6937;56.096;12.664;2023-05-12T11:18:45;102260.75;;;21.95;43.47
13732;BME280;6937;56.096;12.664;2023-05-12T11:21:11;102242.50;;;21.49;43.46
13732;BME280;6937;56.096;12.664;2023-05-12T11:23:36;102261.94;;;21.63;45.10
13732;BME280;6937;56.096;12.664;2023-05-12T11:26:02;102278.09;;;21.84;43.87
13732;BME280;6937;56.096;12.664;2023-05-12T11:28:39;102287.22;;;22.12;44.26
13732;BME280;6937;56.096;12.664;2023-05-12T11:31:04;102302.38;;;22.24;43.63
13732;BME280;6937;56.096;12.664;2023-05-12T11:33:29;102305.47;;;22.39;42.88
13732;BME280;6937;56.096;12.664;2023-05-12T11:35:55;102306.94;;;22.33;43.45
13732;BME280;6937;56.096;12.664;2023-05-12T11:38:20;102300.47;;;22.34;43.30
13732;BME280;6937;56.096;12.664;2023-05-12T11:40:48;102296.94;;;22.51;43.19
13732;BME280;6937;56.096;12.664;2023-05-12T11:43:19;102291.50;;;22.51;43.02
13732;BME280;6937;56.096;12.664;2023-05-12T11:45:44;102304.78;;;22.64;43.32
13732;BME280;6937;56.096;12.664;2023-05-12T11:48:12;102285.63;;;22.46;42.65
13732;BME280;6937;56.096;12.664;2023-05-12T11:50:40;102285.13;;;22.33;42.85
13732;BME280;6937;56.096;12.664;2023-05-12T11:53:11;102284.03;;;22.26;42.18
13732;BME280;6937;56.096;12.664;2023-05-12T11:55:49;102267.34;;;22.02;43.22
13732;BME280;6937;56.096;12.664;2023-05-12T11:58:20;102284.88;;;22.27;43.57
13732;BME280;6937;56.096;12.664;2023-05-12T12:00:46;102288.66;;;22.43;42.35
13732;BME280;6937;56.096;12.664;2023-05-12T12:03:14;102279.03;;;22.12;42.70
13732;BME280;6937;56.096;12.664;2023-05-12T12:05:41;102286.03;;;22.51;42.86
13732;BME280;6937;56.096;12.664;2023-05-12T12:08:09;102298.66;;;22.80;42.78
13732;BME280;6937;56.096;12.664;2023-05-12T12:10:37;102303.75;;;22.92;41.40
13732;BME280;6937;56.096;12.664;2023-05-12T12:13:03;102303.09;;;23.08;41.94
13732;BME280;6937;56.096;12.664;2023-05-12T12:15:28;102295.72;;;22.91;41.21
13732;BME280;6937;56.096;12.664;2023-05-12T12:17:54;102293.94;;;22.99;42.09
13732;BME280;6937;56.096;12.664;2023-05-12T12:20:20;102305.69;;;23.45;42.06
13732;BME280;6937;56.096;12.664;2023-05-12T12:22:46;102306.03;;;23.68;41.59
13732;BME280;6937;56.096;12.664;2023-05-12T12:25:11;102292.00;;;23.63;41.12
13732;BME280;6937;56.096;12.664;2023-05-12T12:27:36;102266.22;;;23.04;41.15
13732;BME280;6937;56.096;12.664;2023-05-12T12:30:02;102268.22;;;22.84;41.66
13732;BME280;6937;56.096;12.664;2023-05-12T12:32:28;102281.25;;;23.26;42.15
13732;BME280;6937;56.096;12.664;2023-05-12T12:34:54;102288.38;;;23.54;41.22
13732;BME280;6937;56.096;12.664;2023-05-12T12:37:24;102283.34;;;23.67;40.99
13732;BME280;6937;56.096;12.664;2023-05-12T12:39:49;102294.53;;;23.82;40.79
13732;BME280;6937;56.096;12.664;2023-05-12T12:42:15;102280.31;;;23.52;39.21
13732;BME280;6937;56.096;12.664;2023-05-12T12:44:40;102254.59;;;22.84;40.16
13732;BME280;6937;56.096;12.664;2023-05-12T12:47:06;102246.84;;;22.80;40.78
13732;BME280;6937;56.096;12.664;2023-05-12T12:49:31;102282.03;;;23.53;42.40